Time;durP1;ratioP1;P1;durP2;ratioP2;P2;SDS_P1;SDS_P2;PMS_P1;PMS_P2;Temp;Humidity;BMP_temperature;BMP_pressure;BME280_temperature;BME280_humidity;BME280_pressure;Samples;Min_cycle;Max_cycle;Signal;HPM_P1;HPM_P2
2022/04/08 00:00:12;;;;;;;11.50;2.60;;;;;;;-150.27;100.00;61272.81;5245735;28;20049;-74
2022/04/08 00:02:43;;;;;;;15.57;2.50;;;;;;;-150.27;100.00;61272.81;5254497;28;20029;-74
2022/04/08 00:05:15;;;;;;;12.07;3.13;;;;;;;-150.27;100.00;61272.81;5246475;28;20030;-74
2022/04/08 00:07:46;;;;;;;11.07;2.07;;;;;;;-150.27;100.00;61272.81;5246229;28;20456;-74
2022/04/08 00:10:18;;;;;;;17.60;3.30;;;;;;;-150.27;100.00;61272.81;5240763;28;20033;-74
2022/04/08 00:12:49;;;;;;;12.97;2.57;;;;;;;-150.27;100.00;61272.81;5246002;28;20086;-74
2022/04/08 00:15:21;;;;;;;16.33;2.57;;;;;;;-150.27;100.00;61272.81;5241605;28;20053;-74
2022/04/08 00:17:52;;;;;;;12.17;2.67;;;;;;;-150.27;100.00;61272.81;5233240;28;20336;-74
2022/04/08 00:20:25;;;;;;;16.47;3.87;;;;;;;-150.27;100.00;61272.81;5251023;28;20021;-74
2022/04/08 00:22:56;;;;;;;12.90;2.60;;;;;;;-150.27;100.00;61272.81;5254877;28;20017;-74
2022/04/08 00:25:28;;;;;;;13.13;3.17;;;;;;;-150.27;100.00;61272.81;5252060;28;20090;-75
2022/04/08 00:27:59;;;;;;;12.93;3.63;;;;;;;-150.27;100.00;61272.81;5244056;28;20549;-74
2022/04/08 00:30:30;;;;;;;17.40;2.80;;;;;;;-150.27;100.00;61272.81;5240706;28;20044;-74
2022/04/08 00:33:02;;;;;;;13.27;2.83;;;;;;;-150.27;100.00;61272.81;5244052;28;20469;-74
2022/04/08 00:35:33;;;;;;;13.90;3.03;;;;;;;-150.27;100.00;61272.81;5253539;28;20033;-74
2022/04/08 00:38:04;;;;;;;18.03;3.20;;;;;;;-150.27;100.00;61272.81;5235281;28;20106;-74
2022/04/08 00:40:35;;;;;;;12.20;2.43;;;;;;;-150.27;100.00;61272.81;5253556;28;20029;-74
2022/04/08 00:43:14;;;;;;;13.80;2.63;;;;;;;-150.27;100.00;61272.81;5253233;28;20033;-74
2022/04/08 00:45:46;;;;;;;15.53;3.57;;;;;;;-150.27;100.00;61272.81;5251055;28;20108;-74
2022/04/08 00:48:17;;;;;;;14.80;2.73;;;;;;;-150.27;100.00;61272.81;5253151;28;20112;-74
2022/04/08 00:50:48;;;;;;;19.77;2.80;;;;;;;-150.27;100.00;61272.81;5253804;28;20028;-74
2022/04/08 00:53:20;;;;;;;17.13;3.33;;;;;;;-150.27;100.00;61272.81;5242555;28;20396;-74
2022/04/08 00:55:52;;;;;;;22.57;3.57;;;;;;;-150.27;100.00;61272.81;5253591;28;20028;-74
2022/04/08 00:58:23;;;;;;;23.60;4.50;;;;;;;-150.27;100.00;61272.81;5243833;28;20041;-74
2022/04/08 01:00:55;;;;;;;13.57;2.93;;;;;;;-150.27;100.00;61272.81;5248543;28;20041;-75
2022/04/08 01:03:26;;;;;;;14.07;3.33;;;;;;;-150.27;100.00;61272.81;5245346;28;20116;-74
2022/04/08 01:05:57;;;;;;;17.47;3.37;;;;;;;-150.27;100.00;61272.81;5252182;28;20037;-75
2022/04/08 01:08:30;;;;;;;20.00;4.90;;;;;;;-150.27;100.00;61272.81;5252911;28;20029;-74
2022/04/08 01:11:03;;;;;;;15.37;3.30;;;;;;;-150.27;100.00;61272.81;5250063;28;20063;-74
2022/04/08 01:13:34;;;;;;;12.17;3.10;;;;;;;-150.27;100.00;61272.81;5254751;22;20084;-74
2022/04/08 01:16:06;;;;;;;15.00;3.27;;;;;;;-150.27;100.00;61272.81;5246034;28;20022;-74
2022/04/08 01:18:37;;;;;;;13.53;3.43;;;;;;;-150.27;100.00;61272.81;5232713;28;20040;-74
2022/04/08 01:21:09;;;;;;;10.23;3.00;;;;;;;-150.27;100.00;61272.81;5232178;28;20045;-74
2022/04/08 01:23:46;;;;;;;16.60;3.57;;;;;;;-150.27;100.00;61272.81;5237843;28;20148;-74
2022/04/08 01:26:18;;;;;;;11.03;2.50;;;;;;;-150.27;100.00;61272.81;5231593;28;20443;-74
2022/04/08 01:28:51;;;;;;;19.67;3.83;;;;;;;-150.27;100.00;61272.81;5231212;28;20033;-74
2022/04/08 01:31:29;;;;;;;14.70;3.53;;;;;;;-150.27;100.00;61272.81;5231256;28;20022;-74
2022/04/08 01:34:00;;;;;;;12.57;3.37;;;;;;;-150.27;100.00;61272.81;5230971;28;20030;-74
2022/04/08 01:36:31;;;;;;;16.27;3.43;;;;;;;-150.27;100.00;61272.81;5232177;28;20588;-74
2022/04/08 01:39:04;;;;;;;18.83;4.33;;;;;;;-150.27;100.00;61272.81;5231410;28;20024;-74
2022/04/08 01:41:35;;;;;;;15.60;2.87;;;;;;;-150.27;100.00;61272.81;5231862;28;20404;-74
2022/04/08 01:44:07;;;;;;;18.50;3.23;;;;;;;-150.27;100.00;61272.81;5229555;28;20029;-74
2022/04/08 01:46:38;;;;;;;21.50;3.43;;;;;;;-150.27;100.00;61272.81;5232118;28;20035;-74
2022/04/08 01:49:09;;;;;;;17.37;2.97;;;;;;;-150.27;100.00;61272.81;5231147;28;20080;-74
2022/04/08 01:51:40;;;;;;;12.67;2.70;;;;;;;-150.27;100.00;61272.81;5213387;28;20021;-74
2022/04/08 01:54:11;;;;;;;13.70;2.83;;;;;;;-150.27;100.00;61272.81;5231184;28;20244;-74
2022/04/08 01:56:43;;;;;;;21.27;3.83;;;;;;;-150.27;100.00;61272.81;5230865;28;20103;-74
2022/04/08 01:59:14;;;;;;;10.97;3.13;;;;;;;-150.27;100.00;61272.81;5230032;28;20443;-74
2022/04/08 02:01:46;;;;;;;19.50;3.33;;;;;;;-150.27;100.00;61272.81;5230849;28;20476;-74
2022/04/08 02:04:17;;;;;;;18.50;3.17;;;;;;;-150.27;100.00;61272.81;5230633;28;20468;-74
2022/04/08 02:06:48;;;;;;;18.87;3.60;;;;;;;-150.27;100.00;61272.81;5231414;28;20104;-74
2022/04/08 02:09:20;;;;;;;14.00;3.77;;;;;;;-150.27;100.00;61272.81;5230424;28;20065;-74
2022/04/08 02:11:51;;;;;;;13.70;3.37;;;;;;;-150.27;100.00;61272.81;5231069;28;20383;-74
2022/04/08 02:14:22;;;;;;;21.77;4.53;;;;;;;-150.27;100.00;61272.81;5229783;28;20042;-74
2022/04/08 02:16:53;;;;;;;19.20;3.00;;;;;;;-150.27;100.00;61272.81;5231719;28;20079;-74
2022/04/08 02:19:25;;;;;;;13.40;2.73;;;;;;;-150.27;100.00;61272.81;5229792;28;20099;-74
2022/04/08 02:21:58;;;;;;;17.43;4.63;;;;;;;-150.27;100.00;61272.81;5230741;28;20041;-74
2022/04/08 02:24:29;;;;;;;19.50;3.70;;;;;;;-150.27;100.00;61272.81;5230656;28;20030;-74
2022/04/08 02:27:00;;;;;;;18.77;5.20;;;;;;;-150.27;100.00;61272.81;5229524;28;20040;-74
2022/04/08 02:29:35;;;;;;;18.93;4.60;;;;;;;-150.27;100.00;61272.81;5211262;28;20416;-74
2022/04/08 02:32:06;;;;;;;18.50;3.05;;;;;;;-150.27;100.00;61272.81;5228352;28;20034;-74
2022/04/08 02:34:38;;;;;;;16.57;3.70;;;;;;;-150.27;100.00;61272.81;5212618;28;20021;-74
2022/04/08 02:37:09;;;;;;;13.60;3.20;;;;;;;-150.27;100.00;61272.81;5230174;28;20013;-74
2022/04/08 02:39:40;;;;;;;14.20;3.40;;;;;;;-150.27;100.00;61272.81;5230124;28;20075;-74
2022/04/08 02:42:12;;;;;;;13.00;3.27;;;;;;;-150.27;100.00;61272.81;5230332;28;20037;-74
2022/04/08 02:44:43;;;;;;;13.30;4.17;;;;;;;-150.27;100.00;61272.81;5229568;28;20025;-74
2022/04/08 02:47:14;;;;;;;13.03;2.40;;;;;;;-150.27;100.00;61272.81;5229945;28;20030;-74
2022/04/08 02:49:46;;;;;;;19.70;3.20;;;;;;;-150.27;100.00;61272.81;5230576;28;20588;-74
2022/04/08 02:52:17;;;;;;;17.40;3.10;;;;;;;-150.27;100.00;61272.81;5212627;28;20117;-74
2022/04/08 02:54:48;;;;;;;20.07;2.90;;;;;;;-150.27;100.00;61272.81;5230331;28;20059;-74
2022/04/08 02:57:19;;;;;;;19.10;3.00;;;;;;;-150.27;100.00;61272.81;5231005;28;20026;-74
2022/04/08 02:59:53;;;;;;;13.33;3.10;;;;;;;-150.27;100.00;61272.81;5230014;28;20029;-75
2022/04/08 03:02:24;;;;;;;15.17;2.73;;;;;;;-150.27;100.00;61272.81;5229453;28;20065;-74
2022/04/08 03:04:56;;;;;;;9.73;2.70;;;;;;;-150.27;100.00;61272.81;5230755;28;20564;-74
2022/04/08 03:07:27;;;;;;;12.00;2.50;;;;;;;-150.27;100.00;61272.81;5229617;28;20029;-77
2022/04/08 03:09:58;;;;;;;13.67;2.70;;;;;;;-150.27;100.00;61272.81;5230108;28;20075;-74
2022/04/08 03:12:31;;;;;;;10.03;3.37;;;;;;;-150.27;100.00;61272.81;5230572;28;20053;-74
2022/04/08 03:15:03;;;;;;;12.20;1.80;;;;;;;-150.27;100.00;61272.81;5229903;28;20847;-74
2022/04/08 03:17:36;;;;;;;12.30;2.90;;;;;;;-150.27;100.00;61272.81;5234729;28;20428;-74
2022/04/08 03:20:08;;;;;;;19.93;3.73;;;;;;;-150.27;100.00;61272.81;5233610;28;20108;-74
2022/04/08 03:22:39;;;;;;;9.23;2.63;;;;;;;-150.27;100.00;61272.81;5234666;28;20035;-74
2022/04/08 03:25:10;;;;;;;14.93;2.60;;;;;;;-150.27;100.00;61272.81;5233117;28;20095;-74
2022/04/08 03:27:41;;;;;;;15.03;2.93;;;;;;;-150.27;100.00;61272.81;5234691;28;20629;-74
2022/04/08 03:30:13;;;;;;;12.80;2.63;;;;;;;-150.27;100.00;61272.81;5232378;28;20518;-74
2022/04/08 03:32:44;;;;;;;12.40;3.50;;;;;;;-150.27;100.00;61272.81;5234239;28;20025;-74
2022/04/08 03:35:15;;;;;;;12.90;3.07;;;;;;;-150.27;100.00;61272.81;5233897;28;20025;-74
2022/04/08 03:37:47;;;;;;;10.63;2.70;;;;;;;-150.27;100.00;61272.81;5234036;28;20123;-74
2022/04/08 03:40:19;;;;;;;13.03;2.83;;;;;;;-150.27;100.00;61272.81;5233947;28;20066;-74
2022/04/08 03:42:50;;;;;;;11.17;2.70;;;;;;;-150.27;100.00;61272.81;5236269;28;20029;-73
2022/04/08 03:45:22;;;;;;;14.47;2.80;;;;;;;-150.27;100.00;61272.81;5236794;28;20395;-74
2022/04/08 03:47:53;;;;;;;14.53;2.73;;;;;;;-150.27;100.00;61272.81;5233363;28;20049;-73
2022/04/08 03:50:25;;;;;;;12.27;3.13;;;;;;;-150.27;100.00;61272.81;5233634;28;20033;-74
2022/04/08 03:52:56;;;;;;;12.27;2.67;;;;;;;-150.27;100.00;61272.81;5233419;28;20538;-74
2022/04/08 03:55:27;;;;;;;15.40;3.20;;;;;;;-150.27;100.00;61272.81;5233112;28;20037;-77
2022/04/08 03:57:58;;;;;;;10.13;2.40;;;;;;;-150.27;100.00;61272.81;5233134;28;20029;-76
2022/04/08 04:00:30;;;;;;;16.73;2.53;;;;;;;-150.27;100.00;61272.81;5233068;28;20041;-74
2022/04/08 04:03:01;;;;;;;13.33;2.73;;;;;;;-150.27;100.00;61272.81;5233318;28;20025;-74
2022/04/08 04:05:35;;;;;;;11.53;2.60;;;;;;;-150.27;100.00;61272.81;5233795;28;20087;-74
2022/04/08 04:08:08;;;;;;;15.40;2.80;;;;;;;-150.27;100.00;61272.81;5239378;28;20025;-74
2022/04/08 04:10:40;;;;;;;10.90;2.47;;;;;;;-150.27;100.00;61272.81;5234061;28;20022;-74
2022/04/08 04:13:11;;;;;;;13.53;2.97;;;;;;;-150.27;100.00;61272.81;5231570;28;20044;-74
2022/04/08 04:15:42;;;;;;;11.97;2.70;;;;;;;-150.27;100.00;61272.81;5233907;28;20033;-74
2022/04/08 04:18:15;;;;;;;9.93;2.73;;;;;;;-150.27;100.00;61272.81;5232474;28;20030;-74
2022/04/08 04:20:46;;;;;;;12.10;2.73;;;;;;;-150.27;100.00;61272.81;5233950;28;20120;-74
2022/04/08 04:23:17;;;;;;;13.30;2.83;;;;;;;-150.27;100.00;61272.81;5232679;28;20174;-74
2022/04/08 04:25:48;;;;;;;10.73;2.83;;;;;;;-150.27;100.00;61272.81;5236317;28;20018;-74
2022/04/08 04:28:20;;;;;;;9.77;2.50;;;;;;;-150.27;100.00;61272.81;5231239;28;20028;-74
2022/04/08 04:30:53;;;;;;;8.60;2.67;;;;;;;-150.27;100.00;61272.81;5232326;28;20075;-74
2022/04/08 04:33:24;;;;;;;8.07;2.93;;;;;;;-150.27;100.00;61272.81;5232837;28;20029;-73
2022/04/08 04:35:55;;;;;;;11.97;2.80;;;;;;;-150.27;100.00;61272.81;5232765;28;20446;-73
2022/04/08 04:38:27;;;;;;;9.83;2.80;;;;;;;-150.27;100.00;61272.81;5215107;28;20625;-73
2022/04/08 04:40:58;;;;;;;15.00;4.33;;;;;;;-150.27;100.00;61272.81;5231975;28;20065;-73
2022/04/08 04:43:29;;;;;;;8.87;2.97;;;;;;;-150.27;100.00;61272.81;5231682;28;20040;-72
2022/04/08 04:46:03;;;;;;;12.57;4.33;;;;;;;-150.27;100.00;61272.81;5231807;28;20029;-72
2022/04/08 04:48:34;;;;;;;10.23;3.87;;;;;;;-150.27;100.00;61272.81;5245940;28;20246;-72
2022/04/08 04:51:05;;;;;;;7.33;2.57;;;;;;;-150.27;100.00;61272.81;5253281;28;20025;-72
2022/04/08 04:53:37;;;;;;;10.57;4.07;;;;;;;-150.27;100.00;61272.81;5246187;28;20033;-72
2022/04/08 04:56:08;;;;;;;11.80;4.17;;;;;;;-150.27;100.00;61272.81;5244411;28;20068;-72
2022/04/08 04:58:39;;;;;;;12.27;5.33;;;;;;;-150.27;100.00;61272.81;5246702;28;20029;-75
2022/04/08 05:01:11;;;;;;;13.07;6.03;;;;;;;-150.27;100.00;61272.81;5243466;28;20064;-73
2022/04/08 05:03:42;;;;;;;11.20;5.93;;;;;;;-150.27;100.00;61272.81;5236699;28;20057;-72
2022/04/08 05:06:13;;;;;;;13.37;5.20;;;;;;;-150.27;100.00;61272.81;5246275;28;20395;-75
2022/04/08 05:08:44;;;;;;;10.43;5.17;;;;;;;-150.27;100.00;61272.81;5252469;28;20020;-72
2022/04/08 05:11:16;;;;;;;14.20;6.43;;;;;;;-150.27;100.00;61272.81;5236324;28;20056;-72
2022/04/08 05:13:47;;;;;;;11.43;4.90;;;;;;;-150.27;100.00;61272.81;5239724;28;20045;-72
2022/04/08 05:16:19;;;;;;;13.70;5.67;;;;;;;-150.27;100.00;61272.81;5230823;28;20034;-74
2022/04/08 05:18:50;;;;;;;13.73;5.53;;;;;;;-150.27;100.00;61272.81;5244407;28;20025;-73
2022/04/08 05:21:21;;;;;;;12.30;5.57;;;;;;;-150.27;100.00;61272.81;5239898;28;20057;-73
2022/04/08 05:23:53;;;;;;;8.77;5.50;;;;;;;-150.27;100.00;61272.81;5231153;28;20484;-73
2022/04/08 05:26:24;;;;;;;12.47;6.13;;;;;;;-150.27;100.00;61272.81;5215752;28;20017;-73
2022/04/08 05:28:55;;;;;;;13.40;5.80;;;;;;;-150.27;100.00;61272.81;5241165;28;20480;-74
2022/04/08 05:31:26;;;;;;;11.50;6.40;;;;;;;-150.27;100.00;61272.81;5243237;28;20605;-73
2022/04/08 05:33:58;;;;;;;13.53;6.70;;;;;;;-150.27;100.00;61272.81;5220921;28;20032;-79
2022/04/08 05:36:29;;;;;;;10.20;6.13;;;;;;;-150.27;100.00;61272.81;5243258;28;20075;-82
2022/04/08 05:39:00;;;;;;;12.77;8.23;;;;;;;-150.27;100.00;61272.81;5246022;28;20078;-69
2022/04/08 05:41:32;;;;;;;15.70;7.63;;;;;;;-150.27;100.00;61272.81;5243021;28;20025;-86
2022/04/08 05:44:03;;;;;;;16.63;8.23;;;;;;;-150.27;100.00;61272.81;5248555;28;20020;-82
2022/04/08 05:46:35;;;;;;;11.57;7.90;;;;;;;-150.27;100.00;61272.81;5239326;28;20033;-76
2022/04/08 05:49:07;;;;;;;15.17;8.30;;;;;;;-150.27;100.00;61272.81;5231413;28;20029;-77
2022/04/08 05:51:38;;;;;;;13.57;8.17;;;;;;;-150.27;100.00;61272.81;5230071;28;20098;-77
2022/04/08 05:54:09;;;;;;;16.13;9.00;;;;;;;-150.27;100.00;61272.81;5215729;28;20048;-77
2022/04/08 05:56:40;;;;;;;20.30;9.83;;;;;;;-150.27;100.00;61272.81;5231806;28;20087;-76
2022/04/08 05:59:12;;;;;;;13.27;8.10;;;;;;;-150.27;100.00;61272.81;5228855;28;20444;-75
2022/04/08 06:01:43;;;;;;;12.47;7.77;;;;;;;-150.27;100.00;61272.81;5231594;28;20084;-74
2022/04/08 06:04:14;;;;;;;16.77;8.27;;;;;;;-150.27;100.00;61272.81;5230877;28;20079;-72
2022/04/08 06:06:45;;;;;;;18.13;9.47;;;;;;;-150.27;100.00;61272.81;5215761;28;20113;-74
2022/04/08 06:09:17;;;;;;;20.83;9.70;;;;;;;-150.27;100.00;61272.81;5218409;28;20033;-77
2022/04/08 06:11:48;;;;;;;12.70;7.40;;;;;;;-150.27;100.00;61272.81;5201871;28;20025;-77
2022/04/08 06:14:20;;;;;;;9.90;6.87;;;;;;;-150.27;100.00;61272.81;5221929;28;20180;-78
2022/04/08 06:16:51;;;;;;;11.03;7.30;;;;;;;-150.27;100.00;61272.81;5227616;28;20037;-78
2022/04/08 06:19:22;;;;;;;15.83;6.43;;;;;;;-150.27;100.00;61272.81;5226307;28;20057;-77
2022/04/08 06:21:54;;;;;;;14.63;7.93;;;;;;;-150.27;100.00;61272.81;5209988;28;20029;-78
2022/04/08 06:24:26;;;;;;;9.40;6.00;;;;;;;-150.27;100.00;61272.81;5226647;28;20025;-78
2022/04/08 06:26:57;;;;;;;15.07;6.37;;;;;;;-150.27;100.00;61272.81;5227514;28;20498;-78
2022/04/08 06:29:28;;;;;;;18.00;7.17;;;;;;;-150.27;100.00;61272.81;5228061;28;20535;-78
2022/04/08 06:31:59;;;;;;;11.87;6.53;;;;;;;-150.27;100.00;61272.81;5240545;28;20040;-77
2022/04/08 06:34:31;;;;;;;13.17;6.10;;;;;;;-150.27;100.00;61272.81;5228327;28;20420;-78
2022/04/08 06:37:02;;;;;;;15.37;6.73;;;;;;;-150.27;100.00;61272.81;5218938;28;20056;-77
2022/04/08 06:39:34;;;;;;;12.47;6.43;;;;;;;-150.27;100.00;61272.81;5237329;28;20033;-77
2022/04/08 06:42:05;;;;;;;12.33;5.90;;;;;;;-150.27;100.00;61272.81;5238980;28;20029;-77
2022/04/08 06:44:36;;;;;;;11.13;5.70;;;;;;;-150.27;100.00;61272.81;5242461;28;20022;-77
2022/04/08 06:47:08;;;;;;;15.10;6.00;;;;;;;-150.27;100.00;61272.81;5243615;28;20036;-77
2022/04/08 06:49:44;;;;;;;12.03;5.47;;;;;;;-150.27;100.00;61272.81;5243946;28;20029;-78
2022/04/08 06:52:16;;;;;;;10.50;6.33;;;;;;;-150.27;100.00;61272.81;5232909;28;20073;-78
2022/04/08 06:54:47;;;;;;;8.67;5.30;;;;;;;-150.27;100.00;61272.81;5231730;28;20084;-78
2022/04/08 06:57:18;;;;;;;11.97;5.50;;;;;;;-150.27;100.00;61272.81;5235397;28;20156;-78
2022/04/08 06:59:49;;;;;;;15.60;5.50;;;;;;;-150.27;100.00;61272.81;5234281;28;20042;-78
2022/04/08 07:02:21;;;;;;;15.73;5.50;;;;;;;-150.27;100.00;61272.81;5215651;28;20037;-78
2022/04/08 07:04:53;;;;;;;9.10;4.43;;;;;;;-150.27;100.00;61272.81;5212897;28;20106;-78
2022/04/08 07:07:45;;;;;;;17.40;5.10;;;;;;;-150.27;100.00;61272.81;5232700;28;20389;-78
2022/04/08 07:10:16;;;;;;;13.63;5.07;;;;;;;-150.27;100.00;61272.81;5233099;28;20034;-76
2022/04/08 07:12:47;;;;;;;10.47;5.10;;;;;;;-150.27;100.00;61272.81;5237845;28;20071;-74
2022/04/08 07:15:19;;;;;;;9.80;5.27;;;;;;;-150.27;100.00;61272.81;5231174;28;20057;-74
2022/04/08 07:17:50;;;;;;;15.57;5.23;;;;;;;-150.27;100.00;61272.81;5246164;28;20017;-75
2022/04/08 07:20:21;;;;;;;15.10;5.13;;;;;;;-150.27;100.00;61272.81;5229482;28;20041;-74
2022/04/08 07:22:53;;;;;;;13.17;4.37;;;;;;;-150.27;100.00;61272.81;5225238;28;20033;-74
2022/04/08 07:25:24;;;;;;;9.03;4.43;;;;;;;-150.27;100.00;61272.81;5230069;28;20060;-74
2022/04/08 07:27:58;;;;;;;6.57;3.57;;;;;;;-150.27;100.00;61272.81;5231831;28;20083;-75
2022/04/08 07:30:29;;;;;;;10.45;4.38;;;;;;;-150.27;100.00;61272.81;5238470;28;20041;-74
2022/04/08 07:33:03;;;;;;;10.00;4.50;;;;;;;-150.27;100.00;61272.81;5246170;28;20026;-74
2022/04/08 07:35:34;;;;;;;10.73;4.20;;;;;;;-150.27;100.00;61272.81;5213477;28;20049;-74
2022/04/08 07:38:05;;;;;;;9.33;4.30;;;;;;;-150.27;100.00;61272.81;5233455;28;21304;-74
2022/04/08 07:40:37;;;;;;;17.80;5.47;;;;;;;-150.27;100.00;61272.81;5182537;28;20021;-74
2022/04/08 07:43:08;;;;;;;10.50;4.60;;;;;;;-150.27;100.00;61272.81;5240302;28;20071;-74
2022/04/08 07:45:40;;;;;;;10.00;5.70;;;;;;;-150.27;100.00;61272.81;5239422;28;20036;-74
2022/04/08 07:48:11;;;;;;;9.30;4.50;;;;;;;-150.27;100.00;61272.81;5232331;28;20033;-74
2022/04/08 07:50:42;;;;;;;12.33;4.00;;;;;;;-150.27;100.00;61272.81;5224242;28;20084;-74
2022/04/08 07:53:13;;;;;;;12.27;4.40;;;;;;;-150.27;100.00;61272.81;5238145;28;20057;-74
2022/04/08 07:55:45;;;;;;;10.23;4.87;;;;;;;-150.27;100.00;61272.81;5240676;28;20031;-74
2022/04/08 07:58:16;;;;;;;16.37;5.00;;;;;;;-150.27;100.00;61272.81;5229022;28;20710;-74
2022/04/08 08:00:47;;;;;;;10.73;3.80;;;;;;;-150.27;100.00;61272.81;5242944;28;20025;-74
2022/04/08 08:03:19;;;;;;;8.13;4.10;;;;;;;-150.27;100.00;61272.81;5250353;28;20039;-74
2022/04/08 08:05:53;;;;;;;13.80;4.57;;;;;;;-150.27;100.00;61272.81;5231194;28;20026;-74
2022/04/08 08:08:24;;;;;;;9.93;4.47;;;;;;;-150.27;100.00;61272.81;5246259;28;20021;-74
2022/04/08 08:10:55;;;;;;;13.13;3.77;;;;;;;-150.27;100.00;61272.81;5237261;28;20392;-74
2022/04/08 08:13:27;;;;;;;10.63;4.27;;;;;;;-150.27;100.00;61272.81;5245275;28;20534;-74
2022/04/08 08:15:58;;;;;;;14.47;4.10;;;;;;;-150.27;100.00;61272.81;5232189;28;20025;-74
2022/04/08 08:18:29;;;;;;;11.87;4.50;;;;;;;-150.27;100.00;61272.81;5249563;28;20361;-74
2022/04/08 08:21:01;;;;;;;7.83;3.63;;;;;;;-150.27;100.00;61272.81;5214962;28;20073;-74
2022/04/08 08:23:32;;;;;;;8.03;3.70;;;;;;;-150.27;100.00;61272.81;5231056;28;20100;-74
2022/04/08 08:26:05;;;;;;;9.67;4.07;;;;;;;-150.27;100.00;61272.81;5228734;28;20091;-74
2022/04/08 08:28:36;;;;;;;8.43;3.73;;;;;;;-150.27;100.00;61272.81;5213969;28;20040;-74
2022/04/08 08:31:07;;;;;;;8.23;3.83;;;;;;;-150.27;100.00;61272.81;5213566;28;20400;-74
2022/04/08 08:33:39;;;;;;;6.87;3.13;;;;;;;-150.27;100.00;61272.81;5240652;28;20542;-74
2022/04/08 08:36:10;;;;;;;9.43;3.50;;;;;;;-150.27;100.00;61272.81;5233088;28;20106;-74
2022/04/08 08:38:42;;;;;;;8.67;3.57;;;;;;;-150.27;100.00;61272.81;5229929;28;20075;-74
2022/04/08 08:41:14;;;;;;;9.20;4.67;;;;;;;-150.27;100.00;61272.81;5201725;28;20495;-74
2022/04/08 08:43:47;;;;;;;8.67;3.67;;;;;;;-150.27;100.00;61272.81;5246636;28;20029;-75
2022/04/08 08:46:20;;;;;;;9.23;3.60;;;;;;;-150.27;100.00;61272.81;5239139;28;20110;-73
2022/04/08 08:48:54;;;;;;;9.07;3.90;;;;;;;-150.27;100.00;61272.81;5229140;28;20037;-74
2022/04/08 08:51:26;;;;;;;8.80;4.15;;;;;;;-150.27;100.00;61272.81;5232650;28;20570;-74
2022/04/08 08:53:57;;;;;;;8.10;3.30;;;;;;;-150.27;100.00;61272.81;5220464;28;20029;-76
2022/04/08 08:56:29;;;;;;;22.67;4.07;;;;;;;-150.27;100.00;61272.81;5232960;28;20025;-76
2022/04/08 08:59:00;;;;;;;7.40;3.23;;;;;;;-150.27;100.00;61272.81;5231585;28;20087;-74
2022/04/08 09:01:31;;;;;;;9.27;3.13;;;;;;;-150.27;100.00;61272.81;5236281;28;20099;-75
2022/04/08 09:04:03;;;;;;;6.93;3.07;;;;;;;-150.27;100.00;61272.81;5241347;28;20033;-75
2022/04/08 09:06:41;;;;;;;7.37;3.53;;;;;;;-150.27;100.00;61272.81;5217056;28;20033;-74
2022/04/08 09:09:12;;;;;;;9.07;3.43;;;;;;;-150.27;100.00;61272.81;5222405;28;20491;-74
2022/04/08 09:11:43;;;;;;;7.13;3.13;;;;;;;-150.27;100.00;61272.81;5235185;28;20028;-75
2022/04/08 09:14:15;;;;;;;11.30;3.40;;;;;;;-150.27;100.00;61272.81;5240044;28;20037;-75
2022/04/08 09:16:46;;;;;;;9.43;3.17;;;;;;;-150.27;100.00;61272.81;5229151;28;20261;-75
2022/04/08 09:19:17;;;;;;;10.87;3.53;;;;;;;-150.27;100.00;61272.81;5208919;28;20473;-74
2022/04/08 09:21:52;;;;;;;7.77;3.27;;;;;;;-150.27;100.00;61272.81;5227514;28;20056;-75
2022/04/08 09:24:24;;;;;;;10.03;3.90;;;;;;;-150.27;100.00;61272.81;5229293;28;20542;-75
2022/04/08 09:26:56;;;;;;;6.97;3.07;;;;;;;-150.27;100.00;61272.81;5242341;28;20053;-78
2022/04/08 09:29:27;;;;;;;7.07;3.03;;;;;;;-150.27;100.00;61272.81;5226208;28;20021;-78
2022/04/08 09:31:59;;;;;;;9.60;3.90;;;;;;;-150.27;100.00;61272.81;5240290;28;20091;-77
2022/04/08 09:34:30;;;;;;;7.20;3.50;;;;;;;-150.27;100.00;61272.81;5242028;28;20091;-74
2022/04/08 09:37:15;;;;;;;7.53;2.93;;;;;;;-150.27;100.00;61272.81;5233855;28;20503;-78
2022/04/08 09:39:56;;;;;;;7.07;4.00;;;;;;;-150.27;100.00;61272.81;5210985;28;20616;-78
2022/04/08 09:42:42;;;;;;;7.57;3.20;;;;;;;-150.27;100.00;61272.81;5227916;28;20029;-78
2022/04/08 09:45:14;;;;;;;12.57;3.53;;;;;;;-150.27;100.00;61272.81;5231324;28;20492;-77
2022/04/08 09:47:46;;;;;;;8.13;2.83;;;;;;;-150.27;100.00;61272.81;5235545;28;20108;-78
2022/04/08 09:50:17;;;;;;;9.40;2.87;;;;;;;-150.27;100.00;61272.81;5229383;28;20626;-78
2022/04/08 09:52:48;;;;;;;10.53;3.03;;;;;;;-150.27;100.00;61272.81;5216211;28;20037;-79
2022/04/08 09:55:22;;;;;;;7.40;2.50;;;;;;;-150.27;100.00;61272.81;5228424;28;20044;-77
2022/04/08 09:58:03;;;;;;;6.25;2.95;;;;;;;-150.27;100.00;61272.81;5232068;28;20018;-77
2022/04/08 10:00:35;;;;;;;10.10;3.63;;;;;;;-150.27;100.00;61272.81;5233043;28;20028;-76
2022/04/08 10:03:07;;;;;;;11.07;3.50;;;;;;;-150.27;100.00;61272.81;5247819;28;20013;-78
2022/04/08 10:05:39;;;;;;;10.93;3.33;;;;;;;-150.27;100.00;61272.81;5231191;28;20025;-78
2022/04/08 10:08:10;;;;;;;11.13;3.70;;;;;;;-150.27;100.00;61272.81;5228683;28;20045;-78
2022/04/08 10:10:51;;;;;;;10.63;3.17;;;;;;;-150.27;100.00;61272.81;5236218;28;20029;-75
2022/04/08 10:13:43;;;;;;;9.83;3.73;;;;;;;-150.27;100.00;61272.81;5232536;28;20038;-75
2022/04/08 10:16:19;;;;;;;9.13;3.03;;;;;;;-150.27;100.00;61272.81;5209886;28;20382;-75
2022/04/08 10:18:52;;;;;;;10.57;3.03;;;;;;;-150.27;100.00;61272.81;5232764;28;20429;-75
2022/04/08 10:21:23;;;;;;;9.10;3.73;;;;;;;-150.27;100.00;61272.81;5231253;28;20045;-75
2022/04/08 10:23:55;;;;;;;9.10;3.60;;;;;;;-150.27;100.00;61272.81;5228581;28;20119;-76
2022/04/08 10:26:27;;;;;;;11.10;3.63;;;;;;;-150.27;100.00;61272.81;5226948;28;20018;-75
2022/04/08 10:29:10;;;;;;;7.97;2.53;;;;;;;-150.27;100.00;61272.81;5214356;28;20025;-75
2022/04/08 10:31:42;;;;;;;8.97;3.17;;;;;;;-150.27;100.00;61272.81;5247799;28;20005;-74
2022/04/08 10:34:15;;;;;;;9.87;4.07;;;;;;;-150.27;100.00;61272.81;5229879;28;20041;-77
2022/04/08 10:36:46;;;;;;;10.07;3.00;;;;;;;-150.27;100.00;61272.81;5229268;28;20045;-75
2022/04/08 10:39:22;;;;;;;10.50;3.37;;;;;;;-150.27;100.00;61272.81;5228961;28;20022;-75
2022/04/08 10:42:00;;;;;;;7.00;2.53;;;;;;;-150.27;100.00;61272.81;5229067;28;20519;-75
2022/04/08 10:44:39;;;;;;;9.33;3.07;;;;;;;-150.27;100.00;61272.81;5230250;28;20017;-75
2022/04/08 10:47:16;;;;;;;9.93;3.30;;;;;;;-150.27;100.00;61272.81;5229586;28;20059;-76
2022/04/08 10:50:04;;;;;;;8.03;2.50;;;;;;;-150.27;100.00;61272.81;5227600;28;20496;-73
2022/04/08 10:52:40;;;;;;;7.03;2.70;;;;;;;-150.27;100.00;61272.81;5230765;28;20491;-74
2022/04/08 10:55:12;;;;;;;14.40;2.70;;;;;;;-150.27;100.00;61272.81;5226598;28;20502;-74
2022/04/08 10:57:44;;;;;;;6.67;2.50;;;;;;;-150.27;100.00;61272.81;5230640;28;20029;-74
2022/04/08 11:00:19;;;;;;;9.03;2.23;;;;;;;-150.27;100.00;61272.81;5231425;28;20214;-76
2022/04/08 11:02:53;;;;;;;7.47;2.70;;;;;;;-150.27;100.00;61272.81;5239028;28;20017;-76
2022/04/08 11:05:25;;;;;;;16.52;3.53;;;;;;;-150.27;100.00;61272.81;5215197;28;20028;-76
2022/04/08 11:07:58;;;;;;;8.23;2.57;;;;;;;-150.27;100.00;61272.81;5244264;28;20029;-77
2022/04/08 11:10:31;;;;;;;9.97;2.97;;;;;;;-150.27;100.00;61272.81;5232882;28;20037;-76
2022/04/08 11:13:03;;;;;;;7.13;2.50;;;;;;;-150.27;100.00;61272.81;5236677;28;20083;-76
2022/04/08 11:15:34;;;;;;;8.60;2.50;;;;;;;-150.27;100.00;61272.81;5232286;28;20061;-76
2022/04/08 11:18:08;;;;;;;10.30;3.80;;;;;;;-150.27;100.00;61272.81;5244688;28;20024;-76
2022/04/08 11:20:39;;;;;;;10.02;2.67;;;;;;;-150.27;100.00;61272.81;5241142;28;20456;-74
2022/04/08 11:23:10;;;;;;;11.67;3.20;;;;;;;-150.27;100.00;61272.81;5210714;28;20022;-74
2022/04/08 11:25:41;;;;;;;6.97;2.23;;;;;;;-150.27;100.00;61272.81;5231222;28;20032;-74